sensor_id;sensor_type;location;lat;lon;timestamp;P1;durP1;ratioP1;P2;durP2;ratioP2
31660;SDS011;18267;52.234;7.444;2023-05-07T00:01:05;11.45;;;6.68;;
31660;SDS011;18267;52.234;7.444;2023-05-07T00:03:31;15.88;;;6.50;;
31660;SDS011;18267;52.234;7.444;2023-05-07T00:05:57;8.88;;;5.97;;
31660;SDS011;18267;52.234;7.444;2023-05-07T00:08:23;11.80;;;7.20;;
31660;SDS011;18267;52.234;7.444;2023-05-07T00:10:48;10.18;;;6.90;;
31660;SDS011;18267;52.234;7.444;2023-05-07T00:13:14;10.60;;;6.63;;
31660;SDS011;18267;52.234;7.444;2023-05-07T00:15:40;12.98;;;8.23;;
31660;SDS011;18267;52.234;7.444;2023-05-07T00:18:06;12.13;;;8.32;;
31660;SDS011;18267;52.234;7.444;2023-05-07T00:20:31;10.65;;;7.53;;
31660;SDS011;18267;52.234;7.444;2023-05-07T00:22:57;14.27;;;8.38;;
31660;SDS011;18267;52.234;7.444;2023-05-07T00:25:23;10.95;;;8.40;;
31660;SDS011;18267;52.234;7.444;2023-05-07T00:27:48;14.80;;;8.43;;
31660;SDS011;18267;52.234;7.444;2023-05-07T00:30:14;14.40;;;8.23;;
31660;SDS011;18267;52.234;7.444;2023-05-07T00:32:39;13.20;;;9.07;;
31660;SDS011;18267;52.234;7.444;2023-05-07T00:35:05;12.93;;;8.85;;
31660;SDS011;18267;52.234;7.444;2023-05-07T00:37:32;12.63;;;8.63;;
31660;SDS011;18267;52.234;7.444;2023-05-07T00:39:57;13.02;;;9.13;;
31660;SDS011;18267;52.234;7.444;2023-05-07T00:42:23;14.25;;;9.15;;
31660;SDS011;18267;52.234;7.444;2023-05-07T00:44:49;15.52;;;9.32;;
31660;SDS011;18267;52.234;7.444;2023-05-07T00:47:15;13.80;;;9.25;;
31660;SDS011;18267;52.234;7.444;2023-05-07T00:49:42;15.77;;;10.45;;
31660;SDS011;18267;52.234;7.444;2023-05-07T00:52:09;21.20;;;9.32;;
31660;SDS011;18267;52.234;7.444;2023-05-07T00:54:38;15.95;;;9.48;;
31660;SDS011;18267;52.234;7.444;2023-05-07T00:57:05;17.60;;;9.77;;
31660;SDS011;18267;52.234;7.444;2023-05-07T00:59:31;17.13;;;10.13;;
31660;SDS011;18267;52.234;7.444;2023-05-07T01:01:58;16.15;;;10.35;;
31660;SDS011;18267;52.234;7.444;2023-05-07T01:04:24;19.52;;;10.18;;
31660;SDS011;18267;52.234;7.444;2023-05-07T01:06:49;16.88;;;10.60;;
31660;SDS011;18267;52.234;7.444;2023-05-07T01:09:16;18.38;;;11.10;;
31660;SDS011;18267;52.234;7.444;2023-05-07T01:11:45;18.55;;;11.45;;
31660;SDS011;18267;52.234;7.444;2023-05-07T01:14:11;24.52;;;12.77;;
31660;SDS011;18267;52.234;7.444;2023-05-07T01:16:37;19.42;;;11.45;;
31660;SDS011;18267;52.234;7.444;2023-05-07T01:19:02;21.15;;;12.05;;
31660;SDS011;18267;52.234;7.444;2023-05-07T01:21:28;20.52;;;12.63;;
31660;SDS011;18267;52.234;7.444;2023-05-07T01:23:58;19.75;;;11.90;;
31660;SDS011;18267;52.234;7.444;2023-05-07T01:26:23;21.48;;;12.13;;
31660;SDS011;18267;52.234;7.444;2023-05-07T01:28:49;18.25;;;12.43;;
31660;SDS011;18267;52.234;7.444;2023-05-07T01:31:15;23.88;;;13.02;;
31660;SDS011;18267;52.234;7.444;2023-05-07T01:33:42;23.58;;;13.13;;
31660;SDS011;18267;52.234;7.444;2023-05-07T01:36:10;22.55;;;13.30;;
31660;SDS011;18267;52.234;7.444;2023-05-07T01:38:37;20.77;;;11.90;;
31660;SDS011;18267;52.234;7.444;2023-05-07T01:41:04;28.13;;;13.10;;
31660;SDS011;18267;52.234;7.444;2023-05-07T01:43:30;22.85;;;13.48;;
31660;SDS011;18267;52.234;7.444;2023-05-07T01:45:56;20.35;;;13.60;;
31660;SDS011;18267;52.234;7.444;2023-05-07T01:48:24;20.95;;;13.63;;
31660;SDS011;18267;52.234;7.444;2023-05-07T01:50:49;22.33;;;13.15;;
31660;SDS011;18267;52.234;7.444;2023-05-07T01:53:16;24.10;;;13.65;;
31660;SDS011;18267;52.234;7.444;2023-05-07T01:55:41;22.77;;;13.13;;
31660;SDS011;18267;52.234;7.444;2023-05-07T01:58:07;25.67;;;13.65;;
31660;SDS011;18267;52.234;7.444;2023-05-07T02:00:32;21.58;;;13.43;;
31660;SDS011;18267;52.234;7.444;2023-05-07T02:02:58;21.15;;;13.70;;
31660;SDS011;18267;52.234;7.444;2023-05-07T02:05:24;22.42;;;13.52;;
31660;SDS011;18267;52.234;7.444;2023-05-07T02:07:49;21.00;;;12.65;;
31660;SDS011;18267;52.234;7.444;2023-05-07T02:10:15;23.65;;;14.10;;
31660;SDS011;18267;52.234;7.444;2023-05-07T02:12:40;23.40;;;14.38;;
31660;SDS011;18267;52.234;7.444;2023-05-07T02:15:07;23.15;;;13.38;;
31660;SDS011;18267;52.234;7.444;2023-05-07T02:17:33;23.10;;;13.73;;
31660;SDS011;18267;52.234;7.444;2023-05-07T02:19:59;22.17;;;13.80;;
31660;SDS011;18267;52.234;7.444;2023-05-07T02:22:25;21.13;;;13.00;;
31660;SDS011;18267;52.234;7.444;2023-05-07T02:24:50;21.65;;;14.50;;
31660;SDS011;18267;52.234;7.444;2023-05-07T02:27:16;19.95;;;12.93;;
31660;SDS011;18267;52.234;7.444;2023-05-07T02:29:41;25.25;;;14.48;;
31660;SDS011;18267;52.234;7.444;2023-05-07T02:32:07;25.27;;;14.07;;
31660;SDS011;18267;52.234;7.444;2023-05-07T02:34:32;25.67;;;13.73;;
31660;SDS011;18267;52.234;7.444;2023-05-07T02:36:58;18.85;;;13.13;;
31660;SDS011;18267;52.234;7.444;2023-05-07T02:39:24;21.55;;;13.40;;
31660;SDS011;18267;52.234;7.444;2023-05-07T02:41:49;23.55;;;14.38;;
31660;SDS011;18267;52.234;7.444;2023-05-07T02:44:15;26.15;;;14.82;;
31660;SDS011;18267;52.234;7.444;2023-05-07T02:46:40;26.55;;;13.98;;
31660;SDS011;18267;52.234;7.444;2023-05-07T02:49:06;24.58;;;13.68;;
31660;SDS011;18267;52.234;7.444;2023-05-07T02:51:31;23.77;;;13.23;;
31660;SDS011;18267;52.234;7.444;2023-05-07T02:53:57;27.40;;;14.30;;
31660;SDS011;18267;52.234;7.444;2023-05-07T02:56:25;25.50;;;14.18;;
31660;SDS011;18267;52.234;7.444;2023-05-07T02:58:51;28.70;;;15.23;;
31660;SDS011;18267;52.234;7.444;2023-05-07T03:01:17;24.25;;;14.43;;
31660;SDS011;18267;52.234;7.444;2023-05-07T03:03:43;25.95;;;14.70;;
31660;SDS011;18267;52.234;7.444;2023-05-07T03:06:09;28.45;;;14.38;;
31660;SDS011;18267;52.234;7.444;2023-05-07T03:08:35;29.88;;;14.77;;
31660;SDS011;18267;52.234;7.444;2023-05-07T03:11:01;26.27;;;14.35;;
31660;SDS011;18267;52.234;7.444;2023-05-07T03:13:27;32.83;;;15.88;;
31660;SDS011;18267;52.234;7.444;2023-05-07T03:15:52;30.45;;;15.93;;
31660;SDS011;18267;52.234;7.444;2023-05-07T03:18:18;27.27;;;15.35;;
31660;SDS011;18267;52.234;7.444;2023-05-07T03:20:44;28.50;;;15.93;;
31660;SDS011;18267;52.234;7.444;2023-05-07T03:23:09;22.90;;;14.27;;
31660;SDS011;18267;52.234;7.444;2023-05-07T03:25:35;25.75;;;14.95;;
31660;SDS011;18267;52.234;7.444;2023-05-07T03:28:00;29.88;;;15.95;;
31660;SDS011;18267;52.234;7.444;2023-05-07T03:30:26;30.38;;;16.17;;
31660;SDS011;18267;52.234;7.444;2023-05-07T03:32:52;29.70;;;16.38;;
31660;SDS011;18267;52.234;7.444;2023-05-07T03:35:17;33.53;;;16.08;;
31660;SDS011;18267;52.234;7.444;2023-05-07T03:37:43;28.95;;;16.05;;
31660;SDS011;18267;52.234;7.444;2023-05-07T03:40:08;31.33;;;15.85;;
31660;SDS011;18267;52.234;7.444;2023-05-07T03:42:35;31.83;;;17.95;;
31660;SDS011;18267;52.234;7.444;2023-05-07T03:45:00;29.15;;;15.25;;
31660;SDS011;18267;52.234;7.444;2023-05-07T03:47:26;33.47;;;17.92;;
31660;SDS011;18267;52.234;7.444;2023-05-07T03:49:52;37.17;;;18.27;;
31660;SDS011;18267;52.234;7.444;2023-05-07T03:52:18;29.98;;;15.90;;
31660;SDS011;18267;52.234;7.444;2023-05-07T03:54:48;30.40;;;17.05;;
31660;SDS011;18267;52.234;7.444;2023-05-07T03:57:14;29.75;;;15.93;;
31660;SDS011;18267;52.234;7.444;2023-05-07T03:59:40;33.90;;;17.55;;
31660;SDS011;18267;52.234;7.444;2023-05-07T04:02:05;31.25;;;16.13;;
31660;SDS011;18267;52.234;7.444;2023-05-07T04:04:31;34.15;;;17.02;;
31660;SDS011;18267;52.234;7.444;2023-05-07T04:06:57;35.38;;;17.17;;
31660;SDS011;18267;52.234;7.444;2023-05-07T04:09:24;31.20;;;17.88;;
31660;SDS011;18267;52.234;7.444;2023-05-07T04:11:50;30.80;;;17.00;;
31660;SDS011;18267;52.234;7.444;2023-05-07T04:14:15;32.97;;;15.65;;
31660;SDS011;18267;52.234;7.444;2023-05-07T04:16:41;31.85;;;17.55;;
31660;SDS011;18267;52.234;7.444;2023-05-07T04:19:07;35.53;;;18.98;;
31660;SDS011;18267;52.234;7.444;2023-05-07T04:21:32;37.58;;;17.48;;
31660;SDS011;18267;52.234;7.444;2023-05-07T04:23:58;29.70;;;16.42;;
31660;SDS011;18267;52.234;7.444;2023-05-07T04:26:23;31.67;;;17.13;;
31660;SDS011;18267;52.234;7.444;2023-05-07T04:28:49;35.80;;;17.35;;
31660;SDS011;18267;52.234;7.444;2023-05-07T04:31:14;33.72;;;18.10;;
31660;SDS011;18267;52.234;7.444;2023-05-07T04:33:40;31.58;;;16.73;;
31660;SDS011;18267;52.234;7.444;2023-05-07T04:36:06;31.40;;;17.30;;
31660;SDS011;18267;52.234;7.444;2023-05-07T04:38:31;32.90;;;17.35;;
31660;SDS011;18267;52.234;7.444;2023-05-07T04:40:58;31.38;;;16.48;;
31660;SDS011;18267;52.234;7.444;2023-05-07T04:43:28;31.13;;;17.60;;
31660;SDS011;18267;52.234;7.444;2023-05-07T04:45:53;34.10;;;18.42;;
31660;SDS011;18267;52.234;7.444;2023-05-07T04:48:19;33.10;;;17.60;;
31660;SDS011;18267;52.234;7.444;2023-05-07T04:50:49;30.20;;;17.00;;
31660;SDS011;18267;52.234;7.444;2023-05-07T04:53:15;31.60;;;17.40;;
31660;SDS011;18267;52.234;7.444;2023-05-07T04:55:41;36.22;;;17.52;;
31660;SDS011;18267;52.234;7.444;2023-05-07T04:58:07;32.80;;;17.90;;
31660;SDS011;18267;52.234;7.444;2023-05-07T05:00:32;29.77;;;17.15;;
31660;SDS011;18267;52.234;7.444;2023-05-07T05:02:58;30.30;;;17.58;;
31660;SDS011;18267;52.234;7.444;2023-05-07T05:05:24;32.92;;;17.67;;
31660;SDS011;18267;52.234;7.444;2023-05-07T05:07:50;30.92;;;17.38;;
31660;SDS011;18267;52.234;7.444;2023-05-07T05:10:16;30.40;;;16.88;;
31660;SDS011;18267;52.234;7.444;2023-05-07T05:12:42;31.30;;;17.27;;
31660;SDS011;18267;52.234;7.444;2023-05-07T05:15:08;31.92;;;16.67;;
31660;SDS011;18267;52.234;7.444;2023-05-07T05:17:35;27.92;;;16.65;;
31660;SDS011;18267;52.234;7.444;2023-05-07T05:20:01;28.90;;;16.42;;
31660;SDS011;18267;52.234;7.444;2023-05-07T05:22:27;35.50;;;17.52;;
31660;SDS011;18267;52.234;7.444;2023-05-07T05:24:55;29.17;;;17.20;;
31660;SDS011;18267;52.234;7.444;2023-05-07T05:27:21;27.60;;;15.90;;
31660;SDS011;18267;52.234;7.444;2023-05-07T05:29:47;30.02;;;17.40;;
31660;SDS011;18267;52.234;7.444;2023-05-07T05:32:12;28.55;;;16.00;;
31660;SDS011;18267;52.234;7.444;2023-05-07T05:34:38;31.75;;;16.42;;
31660;SDS011;18267;52.234;7.444;2023-05-07T05:37:03;29.73;;;16.98;;
31660;SDS011;18267;52.234;7.444;2023-05-07T05:39:29;28.05;;;16.27;;
31660;SDS011;18267;52.234;7.444;2023-05-07T05:41:54;31.88;;;16.30;;
31660;SDS011;18267;52.234;7.444;2023-05-07T05:44:20;35.38;;;17.25;;
31660;SDS011;18267;52.234;7.444;2023-05-07T05:46:45;31.00;;;16.35;;
31660;SDS011;18267;52.234;7.444;2023-05-07T05:49:11;32.35;;;16.80;;
31660;SDS011;18267;52.234;7.444;2023-05-07T05:51:37;34.63;;;17.08;;
31660;SDS011;18267;52.234;7.444;2023-05-07T05:54:02;25.70;;;16.35;;
31660;SDS011;18267;52.234;7.444;2023-05-07T05:56:28;29.13;;;16.27;;
31660;SDS011;18267;52.234;7.444;2023-05-07T05:58:53;31.08;;;15.23;;
31660;SDS011;18267;52.234;7.444;2023-05-07T06:01:19;30.90;;;16.90;;
31660;SDS011;18267;52.234;7.444;2023-05-07T06:03:44;30.58;;;15.75;;
31660;SDS011;18267;52.234;7.444;2023-05-07T06:06:10;29.00;;;16.30;;
31660;SDS011;18267;52.234;7.444;2023-05-07T06:08:35;29.27;;;16.13;;
31660;SDS011;18267;52.234;7.444;2023-05-07T06:11:01;27.70;;;16.45;;
31660;SDS011;18267;52.234;7.444;2023-05-07T06:13:27;28.63;;;16.40;;
31660;SDS011;18267;52.234;7.444;2023-05-07T06:15:53;26.95;;;15.50;;
31660;SDS011;18267;52.234;7.444;2023-05-07T06:18:19;23.98;;;14.63;;
31660;SDS011;18267;52.234;7.444;2023-05-07T06:20:47;27.65;;;16.48;;
31660;SDS011;18267;52.234;7.444;2023-05-07T06:23:13;28.08;;;15.30;;
31660;SDS011;18267;52.234;7.444;2023-05-07T06:25:40;32.83;;;16.52;;
31660;SDS011;18267;52.234;7.444;2023-05-07T06:28:13;31.05;;;16.02;;
31660;SDS011;18267;52.234;7.444;2023-05-07T06:30:39;25.38;;;15.23;;
31660;SDS011;18267;52.234;7.444;2023-05-07T06:33:05;27.50;;;15.77;;
31660;SDS011;18267;52.234;7.444;2023-05-07T06:35:31;27.70;;;14.25;;
31660;SDS011;18267;52.234;7.444;2023-05-07T06:37:57;21.83;;;14.05;;
31660;SDS011;18267;52.234;7.444;2023-05-07T06:40:23;21.65;;;14.75;;
31660;SDS011;18267;52.234;7.444;2023-05-07T06:42:48;27.05;;;14.38;;
31660;SDS011;18267;52.234;7.444;2023-05-07T06:45:14;25.85;;;14.15;;
31660;SDS011;18267;52.234;7.444;2023-05-07T06:47:40;25.23;;;14.32;;
31660;SDS011;18267;52.234;7.444;2023-05-07T06:50:06;27.13;;;13.65;;
31660;SDS011;18267;52.234;7.444;2023-05-07T06:52:32;27.15;;;14.00;;
31660;SDS011;18267;52.234;7.444;2023-05-07T06:54:58;24.23;;;14.23;;
31660;SDS011;18267;52.234;7.444;2023-05-07T06:57:23;24.15;;;13.77;;
31660;SDS011;18267;52.234;7.444;2023-05-07T06:59:49;26.92;;;13.70;;
31660;SDS011;18267;52.234;7.444;2023-05-07T07:02:15;26.85;;;13.90;;
31660;SDS011;18267;52.234;7.444;2023-05-07T07:04:40;27.65;;;14.40;;
31660;SDS011;18267;52.234;7.444;2023-05-07T07:07:06;25.73;;;14.23;;
31660;SDS011;18267;52.234;7.444;2023-05-07T07:09:32;21.92;;;13.30;;
31660;SDS011;18267;52.234;7.444;2023-05-07T07:11:58;21.83;;;13.57;;
31660;SDS011;18267;52.234;7.444;2023-05-07T07:14:24;32.08;;;14.15;;
31660;SDS011;18267;52.234;7.444;2023-05-07T07:16:49;24.75;;;14.65;;
31660;SDS011;18267;52.234;7.444;2023-05-07T07:19:15;21.23;;;13.25;;
31660;SDS011;18267;52.234;7.444;2023-05-07T07:21:41;22.08;;;13.43;;
31660;SDS011;18267;52.234;7.444;2023-05-07T07:24:07;20.35;;;12.80;;
31660;SDS011;18267;52.234;7.444;2023-05-07T07:26:32;20.80;;;12.80;;
31660;SDS011;18267;52.234;7.444;2023-05-07T07:28:58;19.50;;;12.85;;
31660;SDS011;18267;52.234;7.444;2023-05-07T07:31:23;22.20;;;13.75;;
31660;SDS011;18267;52.234;7.444;2023-05-07T07:33:49;25.65;;;14.43;;
31660;SDS011;18267;52.234;7.444;2023-05-07T07:36:15;21.65;;;13.05;;
31660;SDS011;18267;52.234;7.444;2023-05-07T07:38:41;24.90;;;13.65;;
31660;SDS011;18267;52.234;7.444;2023-05-07T07:41:09;21.83;;;13.70;;
31660;SDS011;18267;52.234;7.444;2023-05-07T07:43:35;24.67;;;13.95;;
31660;SDS011;18267;52.234;7.444;2023-05-07T07:46:01;24.15;;;13.38;;
31660;SDS011;18267;52.234;7.444;2023-05-07T07:48:26;20.67;;;13.35;;
31660;SDS011;18267;52.234;7.444;2023-05-07T07:50:52;20.85;;;13.50;;
31660;SDS011;18267;52.234;7.444;2023-05-07T07:53:18;24.02;;;12.68;;
31660;SDS011;18267;52.234;7.444;2023-05-07T07:55:43;23.67;;;13.77;;
31660;SDS011;18267;52.234;7.444;2023-05-07T07:58:09;21.63;;;13.48;;
31660;SDS011;18267;52.234;7.444;2023-05-07T08:00:35;19.13;;;13.25;;
31660;SDS011;18267;52.234;7.444;2023-05-07T08:03:00;25.98;;;13.48;;
31660;SDS011;18267;52.234;7.444;2023-05-07T08:05:28;22.80;;;13.13;;
31660;SDS011;18267;52.234;7.444;2023-05-07T08:07:54;23.15;;;13.90;;
31660;SDS011;18267;52.234;7.444;2023-05-07T08:10:20;21.10;;;13.55;;
31660;SDS011;18267;52.234;7.444;2023-05-07T08:12:47;18.42;;;11.65;;
31660;SDS011;18267;52.234;7.444;2023-05-07T08:15:13;19.73;;;12.27;;
31660;SDS011;18267;52.234;7.444;2023-05-07T08:17:39;20.63;;;13.57;;
31660;SDS011;18267;52.234;7.444;2023-05-07T08:20:05;19.75;;;12.45;;
31660;SDS011;18267;52.234;7.444;2023-05-07T08:22:31;20.58;;;13.13;;
31660;SDS011;18267;52.234;7.444;2023-05-07T08:24:57;25.30;;;13.32;;
31660;SDS011;18267;52.234;7.444;2023-05-07T08:27:23;18.58;;;12.07;;
31660;SDS011;18267;52.234;7.444;2023-05-07T08:29:48;18.98;;;12.15;;
31660;SDS011;18267;52.234;7.444;2023-05-07T08:32:14;21.98;;;12.80;;
31660;SDS011;18267;52.234;7.444;2023-05-07T08:34:40;21.38;;;12.98;;
31660;SDS011;18267;52.234;7.444;2023-05-07T08:37:06;20.95;;;13.00;;
31660;SDS011;18267;52.234;7.444;2023-05-07T08:39:31;22.13;;;12.68;;
31660;SDS011;18267;52.234;7.444;2023-05-07T08:41:57;22.23;;;13.30;;
31660;SDS011;18267;52.234;7.444;2023-05-07T08:44:28;21.92;;;12.73;;
31660;SDS011;18267;52.234;7.444;2023-05-07T08:46:56;20.27;;;12.68;;
31660;SDS011;18267;52.234;7.444;2023-05-07T08:49:23;20.33;;;12.20;;
31660;SDS011;18267;52.234;7.444;2023-05-07T08:51:48;20.85;;;12.32;;
31660;SDS011;18267;52.234;7.444;2023-05-07T08:54:17;20.35;;;12.98;;
31660;SDS011;18267;52.234;7.444;2023-05-07T08:56:44;23.50;;;13.73;;
31660;SDS011;18267;52.234;7.444;2023-05-07T08:59:10;23.13;;;12.60;;
31660;SDS011;18267;52.234;7.444;2023-05-07T09:01:36;19.25;;;11.68;;
31660;SDS011;18267;52.234;7.444;2023-05-07T09:04:01;21.48;;;12.60;;
31660;SDS011;18267;52.234;7.444;2023-05-07T09:06:27;20.73;;;12.38;;
31660;SDS011;18267;52.234;7.444;2023-05-07T09:08:53;20.73;;;11.73;;
31660;SDS011;18267;52.234;7.444;2023-05-07T09:11:20;22.85;;;11.65;;
31660;SDS011;18267;52.234;7.444;2023-05-07T09:13:47;20.20;;;12.32;;
31660;SDS011;18267;52.234;7.444;2023-05-07T09:16:13;18.23;;;11.55;;
31660;SDS011;18267;52.234;7.444;2023-05-07T09:18:43;18.63;;;12.05;;
31660;SDS011;18267;52.234;7.444;2023-05-07T09:21:10;17.75;;;12.68;;
31660;SDS011;18267;52.234;7.444;2023-05-07T09:23:36;21.30;;;13.65;;
31660;SDS011;18267;52.234;7.444;2023-05-07T09:26:02;23.33;;;13.70;;
31660;SDS011;18267;52.234;7.444;2023-05-07T09:28:27;21.63;;;12.52;;
31660;SDS011;18267;52.234;7.444;2023-05-07T09:30:53;20.50;;;12.55;;
31660;SDS011;18267;52.234;7.444;2023-05-07T09:33:20;18.85;;;12.23;;
31660;SDS011;18267;52.234;7.444;2023-05-07T09:35:45;18.83;;;11.68;;
31660;SDS011;18267;52.234;7.444;2023-05-07T09:38:12;21.17;;;12.23;;
31660;SDS011;18267;52.234;7.444;2023-05-07T09:40:37;21.48;;;11.88;;
31660;SDS011;18267;52.234;7.444;2023-05-07T09:43:10;18.70;;;11.73;;
31660;SDS011;18267;52.234;7.444;2023-05-07T09:45:36;21.23;;;12.05;;
31660;SDS011;18267;52.234;7.444;2023-05-07T09:48:04;21.90;;;12.50;;
31660;SDS011;18267;52.234;7.444;2023-05-07T09:50:36;22.75;;;12.13;;
31660;SDS011;18267;52.234;7.444;2023-05-07T09:53:13;17.42;;;12.13;;
31660;SDS011;18267;52.234;7.444;2023-05-07T09:55:40;18.02;;;12.25;;
31660;SDS011;18267;52.234;7.444;2023-05-07T09:58:08;18.88;;;10.63;;
31660;SDS011;18267;52.234;7.444;2023-05-07T10:00:36;17.98;;;11.35;;
31660;SDS011;18267;52.234;7.444;2023-05-07T10:03:03;18.25;;;11.23;;
31660;SDS011;18267;52.234;7.444;2023-05-07T10:05:30;28.80;;;12.85;;
31660;SDS011;18267;52.234;7.444;2023-05-07T10:07:57;25.42;;;11.60;;
31660;SDS011;18267;52.234;7.444;2023-05-07T10:10:23;17.45;;;10.68;;
31660;SDS011;18267;52.234;7.444;2023-05-07T10:12:49;25.02;;;11.40;;
31660;SDS011;18267;52.234;7.444;2023-05-07T10:15:16;19.63;;;11.18;;
31660;SDS011;18267;52.234;7.444;2023-05-07T10:17:42;20.73;;;13.15;;
31660;SDS011;18267;52.234;7.444;2023-05-07T10:20:08;20.75;;;13.32;;
31660;SDS011;18267;52.234;7.444;2023-05-07T10:22:38;21.98;;;13.18;;
31660;SDS011;18267;52.234;7.444;2023-05-07T10:25:18;20.73;;;13.25;;
31660;SDS011;18267;52.234;7.444;2023-05-07T10:27:49;17.65;;;11.07;;
31660;SDS011;18267;52.234;7.444;2023-05-07T10:30:33;28.33;;;12.98;;
31660;SDS011;18267;52.234;7.444;2023-05-07T10:33:23;22.10;;;12.45;;
31660;SDS011;18267;52.234;7.444;2023-05-07T10:35:52;23.33;;;12.70;;
31660;SDS011;18267;52.234;7.444;2023-05-07T10:38:24;19.08;;;13.32;;
31660;SDS011;18267;52.234;7.444;2023-05-07T10:40:50;21.63;;;13.25;;
31660;SDS011;18267;52.234;7.444;2023-05-07T10:43:16;20.10;;;12.63;;
31660;SDS011;18267;52.234;7.444;2023-05-07T10:45:43;21.50;;;12.20;;
31660;SDS011;18267;52.234;7.444;2023-05-07T10:48:27;23.55;;;12.70;;
31660;SDS011;18267;52.234;7.444;2023-05-07T10:50:53;19.83;;;12.60;;
31660;SDS011;18267;52.234;7.444;2023-05-07T10:53:46;19.90;;;11.75;;
31660;SDS011;18267;52.234;7.444;2023-05-07T10:58:43;24.83;;;12.73;;
31660;SDS011;18267;52.234;7.444;2023-05-07T11:01:09;23.27;;;13.18;;
31660;SDS011;18267;52.234;7.444;2023-05-07T11:03:37;19.02;;;12.02;;
31660;SDS011;18267;52.234;7.444;2023-05-07T11:06:39;18.42;;;10.90;;
31660;SDS011;18267;52.234;7.444;2023-05-07T11:09:05;18.83;;;11.45;;
31660;SDS011;18267;52.234;7.444;2023-05-07T11:11:49;17.05;;;11.32;;
31660;SDS011;18267;52.234;7.444;2023-05-07T11:17:04;18.20;;;11.65;;
31660;SDS011;18267;52.234;7.444;2023-05-07T11:24:57;18.48;;;11.40;;
31660;SDS011;18267;52.234;7.444;2023-05-07T11:27:25;19.80;;;10.82;;
31660;SDS011;18267;52.234;7.444;2023-05-07T11:29:51;16.55;;;10.82;;
31660;SDS011;18267;52.234;7.444;2023-05-07T11:32:26;17.42;;;11.32;;
31660;SDS011;18267;52.234;7.444;2023-05-07T11:34:56;17.08;;;9.32;;
31660;SDS011;18267;52.234;7.444;2023-05-07T11:37:23;14.05;;;9.20;;
31660;SDS011;18267;52.234;7.444;2023-05-07T11:39:50;13.98;;;9.40;;
31660;SDS011;18267;52.234;7.444;2023-05-07T11:42:33;15.40;;;9.60;;
31660;SDS011;18267;52.234;7.444;2023-05-07T11:45:00;19.27;;;10.93;;
31660;SDS011;18267;52.234;7.444;2023-05-07T11:47:26;16.25;;;9.32;;
31660;SDS011;18267;52.234;7.444;2023-05-07T11:49:55;11.48;;;8.23;;
31660;SDS011;18267;52.234;7.444;2023-05-07T11:52:21;14.40;;;9.07;;
31660;SDS011;18267;52.234;7.444;2023-05-07T11:54:57;16.77;;;9.32;;
31660;SDS011;18267;52.234;7.444;2023-05-07T11:57:25;14.50;;;9.27;;
31660;SDS011;18267;52.234;7.444;2023-05-07T11:59:54;15.02;;;9.00;;
31660;SDS011;18267;52.234;7.444;2023-05-07T12:02:20;13.02;;;9.00;;
31660;SDS011;18267;52.234;7.444;2023-05-07T12:04:46;12.35;;;9.13;;
31660;SDS011;18267;52.234;7.444;2023-05-07T12:07:12;13.43;;;8.43;;
31660;SDS011;18267;52.234;7.444;2023-05-07T12:09:41;9.55;;;7.78;;
31660;SDS011;18267;52.234;7.444;2023-05-07T12:12:08;12.00;;;7.90;;
31660;SDS011;18267;52.234;7.444;2023-05-07T12:14:40;10.82;;;7.70;;
31660;SDS011;18267;52.234;7.444;2023-05-07T12:17:07;9.77;;;7.68;;
31660;SDS011;18267;52.234;7.444;2023-05-07T12:19:34;12.18;;;8.13;;
31660;SDS011;18267;52.234;7.444;2023-05-07T12:22:01;9.82;;;6.95;;
31660;SDS011;18267;52.234;7.444;2023-05-07T12:24:28;8.98;;;6.68;;
31660;SDS011;18267;52.234;7.444;2023-05-07T12:26:54;7.93;;;6.35;;
31660;SDS011;18267;52.234;7.444;2023-05-07T12:29:22;9.43;;;6.72;;
31660;SDS011;18267;52.234;7.444;2023-05-07T12:31:49;7.50;;;6.68;;
31660;SDS011;18267;52.234;7.444;2023-05-07T12:34:15;9.45;;;6.20;;
31660;SDS011;18267;52.234;7.444;2023-05-07T12:36:41;9.75;;;7.05;;
31660;SDS011;18267;52.234;7.444;2023-05-07T12:39:07;10.77;;;6.57;;
31660;SDS011;18267;52.234;7.444;2023-05-07T12:41:52;12.07;;;6.72;;
31660;SDS011;18267;52.234;7.444;2023-05-07T12:44:22;8.80;;;6.13;;
31660;SDS011;18267;52.234;7.444;2023-05-07T12:46:49;9.18;;;6.03;;
31660;SDS011;18267;52.234;7.444;2023-05-07T12:49:15;8.43;;;6.22;;
31660;SDS011;18267;52.234;7.444;2023-05-07T12:51:40;12.15;;;5.47;;
31660;SDS011;18267;52.234;7.444;2023-05-07T12:54:06;6.88;;;6.05;;
31660;SDS011;18267;52.234;7.444;2023-05-07T12:56:31;7.25;;;5.57;;
31660;SDS011;18267;52.234;7.444;2023-05-07T12:59:00;7.43;;;6.13;;
31660;SDS011;18267;52.234;7.444;2023-05-07T13:01:29;8.45;;;5.65;;
31660;SDS011;18267;52.234;7.444;2023-05-07T13:03:58;7.80;;;5.93;;
31660;SDS011;18267;52.234;7.444;2023-05-07T13:06:26;7.72;;;6.20;;
31660;SDS011;18267;52.234;7.444;2023-05-07T13:08:51;7.80;;;6.28;;
31660;SDS011;18267;52.234;7.444;2023-05-07T13:11:17;6.75;;;5.57;;
31660;SDS011;18267;52.234;7.444;2023-05-07T13:13:43;6.97;;;5.00;;
31660;SDS011;18267;52.234;7.444;2023-05-07T13:16:09;6.43;;;5.47;;
31660;SDS011;18267;52.234;7.444;2023-05-07T13:18:37;6.65;;;4.93;;
31660;SDS011;18267;52.234;7.444;2023-05-07T13:21:03;7.90;;;5.32;;
31660;SDS011;18267;52.234;7.444;2023-05-07T13:23:29;6.80;;;5.68;;
31660;SDS011;18267;52.234;7.444;2023-05-07T13:25:55;9.98;;;6.70;;
31660;SDS011;18267;52.234;7.444;2023-05-07T13:28:21;7.53;;;5.53;;
31660;SDS011;18267;52.234;7.444;2023-05-07T13:30:50;7.70;;;5.80;;
31660;SDS011;18267;52.234;7.444;2023-05-07T13:33:17;6.82;;;5.38;;
31660;SDS011;18267;52.234;7.444;2023-05-07T13:35:44;6.82;;;5.43;;
31660;SDS011;18267;52.234;7.444;2023-05-07T13:38:09;9.00;;;5.72;;
31660;SDS011;18267;52.234;7.444;2023-05-07T13:40:35;7.90;;;5.25;;
31660;SDS011;18267;52.234;7.444;2023-05-07T13:43:01;6.47;;;5.18;;
31660;SDS011;18267;52.234;7.444;2023-05-07T13:45:27;7.22;;;4.93;;
31660;SDS011;18267;52.234;7.444;2023-05-07T13:47:54;7.10;;;4.70;;
31660;SDS011;18267;52.234;7.444;2023-05-07T13:50:20;5.53;;;4.85;;
31660;SDS011;18267;52.234;7.444;2023-05-07T13:52:46;7.07;;;5.65;;
31660;SDS011;18267;52.234;7.444;2023-05-07T13:55:18;7.80;;;5.68;;
31660;SDS011;18267;52.234;7.444;2023-05-07T13:57:45;7.72;;;5.03;;
31660;SDS011;18267;52.234;7.444;2023-05-07T14:00:11;18.77;;;5.38;;
31660;SDS011;18267;52.234;7.444;2023-05-07T14:02:37;6.88;;;5.13;;
31660;SDS011;18267;52.234;7.444;2023-05-07T14:05:04;7.15;;;5.30;;
31660;SDS011;18267;52.234;7.444;2023-05-07T14:07:30;6.32;;;5.60;;
31660;SDS011;18267;52.234;7.444;2023-05-07T14:09:56;9.05;;;4.80;;
31660;SDS011;18267;52.234;7.444;2023-05-07T14:12:22;7.22;;;5.13;;
31660;SDS011;18267;52.234;7.444;2023-05-07T14:14:47;7.60;;;5.35;;
31660;SDS011;18267;52.234;7.444;2023-05-07T14:17:15;8.15;;;4.57;;
31660;SDS011;18267;52.234;7.444;2023-05-07T14:19:42;7.43;;;5.40;;
31660;SDS011;18267;52.234;7.444;2023-05-07T14:22:08;7.80;;;5.95;;
31660;SDS011;18267;52.234;7.444;2023-05-07T14:24:33;7.72;;;5.60;;
31660;SDS011;18267;52.234;7.444;2023-05-07T14:26:59;7.18;;;5.93;;
31660;SDS011;18267;52.234;7.444;2023-05-07T14:29:25;7.53;;;5.10;;
31660;SDS011;18267;52.234;7.444;2023-05-07T14:31:51;7.50;;;5.35;;
31660;SDS011;18267;52.234;7.444;2023-05-07T14:34:16;11.70;;;6.25;;